createdAt,value
2022-08-30T00:00:59.129Z,98818.75
2022-08-30T00:02:01.085Z,98800.31
2022-08-30T00:03:03.146Z,98790.91
2022-08-30T00:04:08.370Z,98797.03
2022-08-30T00:05:10.477Z,98780.13
2022-08-30T00:06:16.903Z,98793.56
2022-08-30T00:07:18.595Z,98783.91
2022-08-30T00:08:20.873Z,98798.31
2022-08-30T00:09:22.592Z,98810.13
2022-08-30T00:10:25.436Z,98811.22
2022-08-30T00:11:28.411Z,98803.13
2022-08-30T00:12:31.882Z,98791.94
2022-08-30T00:13:33.593Z,98807.53
2022-08-30T00:14:35.471Z,98798.72
2022-08-30T00:15:37.238Z,98795.53
2022-08-30T00:16:38.951Z,98788.81
2022-08-30T00:17:41.405Z,98792.53
2022-08-30T00:18:44.067Z,98805.31
2022-08-30T00:19:46.243Z,98798.94
2022-08-30T00:20:49.938Z,98792.53
2022-08-30T00:21:51.890Z,98804.53
2022-08-30T00:22:53.676Z,98809.63
2022-08-30T00:23:55.471Z,98803.72
2022-08-30T00:24:57.233Z,98758.47
2022-08-30T00:25:59.769Z,98806.44
2022-08-30T00:27:01.658Z,98793.13
2022-08-30T00:28:04.229Z,98796.91
2022-08-30T00:29:05.967Z,98795.16
2022-08-30T00:30:09.428Z,98808.72
2022-08-30T00:31:11.593Z,98807.63
2022-08-30T00:32:18.134Z,98804.13
2022-08-30T00:33:20.164Z,98793.72
2022-08-30T00:34:21.912Z,98807.13
2022-08-30T00:35:24.189Z,98796.31
2022-08-30T00:36:26.600Z,98799.31
2022-08-30T00:37:28.512Z,98796.41
2022-08-30T00:38:30.246Z,98786.84
2022-08-30T00:39:32.023Z,98788.94
2022-08-30T00:40:35.035Z,98800.91
2022-08-30T00:41:37.386Z,98797.13
2022-08-30T00:42:39.700Z,98793.22
2022-08-30T00:43:41.540Z,98793.91
2022-08-30T00:44:43.605Z,98804.41
2022-08-30T00:45:45.976Z,98793.91
2022-08-30T00:46:47.747Z,98797.13
2022-08-30T00:47:49.444Z,98777.13
2022-08-30T00:48:52.843Z,98790.91
2022-08-30T00:49:57.303Z,98794.41
2022-08-30T00:51:03.715Z,98798.72
2022-08-30T00:52:07.449Z,98778.94
2022-08-30T00:53:13.766Z,98794.91
2022-08-30T00:54:17.018Z,98788.13
2022-08-30T00:55:19.755Z,98802.81
2022-08-30T00:56:23.562Z,98802.81
2022-08-30T00:57:25.326Z,98803.91
2022-08-30T00:58:36.905Z,98808.81
2022-08-30T00:59:39.226Z,98806.72
2022-08-30T01:00:40.938Z,98802.91
2022-08-30T01:01:43.213Z,98813.91
2022-08-30T01:02:45.097Z,98807.41
2022-08-30T01:03:49.892Z,98805.03
2022-08-30T01:04:52.160Z,98796.63
2022-08-30T01:05:54.181Z,98811.53
2022-08-30T01:06:56.554Z,98807.22
2022-08-30T01:07:58.431Z,98804.50
2022-08-30T01:09:01.586Z,98810.72
2022-08-30T01:10:04.619Z,98801.31
2022-08-30T01:11:06.408Z,98791.22
2022-08-30T01:12:09.095Z,98814.66
2022-08-30T01:13:14.087Z,98750.69
2022-08-30T01:14:17.351Z,98789.75
2022-08-30T01:15:19.220Z,98798.97
2022-08-30T01:16:25.518Z,98795.03
2022-08-30T01:17:29.698Z,98805.25
2022-08-30T01:18:32.277Z,98802.34
2022-08-30T01:19:44.957Z,98806.25
2022-08-30T01:21:08.478Z,98803.94
2022-08-30T01:22:27.207Z,98800.84
2022-08-30T01:23:30.342Z,98792.81
2022-08-30T01:24:32.945Z,98797.41
2022-08-30T01:25:37.482Z,98775.03
2022-08-30T01:26:40.022Z,98797.22
2022-08-30T01:27:47.700Z,98798.31
2022-08-30T01:28:54.849Z,98787.50
2022-08-30T01:29:57.932Z,98789.19
2022-08-30T01:30:59.846Z,98796.69
2022-08-30T01:32:01.682Z,98770.50
2022-08-30T01:33:05.062Z,98790.28
2022-08-30T01:34:08.086Z,98778.00
2022-08-30T01:35:17.392Z,98791.91
2022-08-30T01:36:20.267Z,98785.69
2022-08-30T01:37:31.521Z,98789.19
2022-08-30T01:38:40.851Z,98787.59
2022-08-30T01:39:45.789Z,98789.78
2022-08-30T01:40:47.530Z,98786.28
2022-08-30T01:41:49.333Z,98786.91
2022-08-30T01:42:51.525Z,98786.09
2022-08-30T01:43:56.153Z,98784.50
2022-08-30T01:44:57.913Z,98778.91
2022-08-30T01:46:02.050Z,98786.09
2022-08-30T01:47:03.906Z,98788.81
2022-08-30T01:48:06.767Z,98765.81
2022-08-30T01:49:12.202Z,98781.81
2022-08-30T01:50:13.963Z,98789.91
2022-08-30T01:51:16.665Z,98780.72
2022-08-30T01:52:18.711Z,98775.41
2022-08-30T01:53:20.565Z,98783.88
2022-08-30T01:54:22.314Z,98777.72
2022-08-30T01:55:29.068Z,98777.50
2022-08-30T01:56:30.904Z,98779.41
2022-08-30T01:57:32.702Z,98767.38
2022-08-30T01:58:38.808Z,98776.41
2022-08-30T01:59:43.594Z,98782.31
2022-08-30T02:00:45.604Z,98773.09
2022-08-30T02:01:47.440Z,98776.59
2022-08-30T02:02:49.421Z,98777.41
2022-08-30T02:03:52.950Z,98765.13
2022-08-30T02:04:57.121Z,98759.50
2022-08-30T02:06:08.673Z,98769.41
2022-08-30T02:07:11.208Z,98766.72
2022-08-30T02:08:12.909Z,98773.00
2022-08-30T02:09:14.744Z,98773.09
2022-08-30T02:10:16.482Z,98765.91
2022-08-30T02:11:18.249Z,98761.63
2022-08-30T02:12:20.120Z,98775.72
2022-08-30T02:13:21.886Z,98772.94
2022-08-30T02:14:23.809Z,98756.31
2022-08-30T02:15:26.147Z,98769.50
2022-08-30T02:16:27.966Z,98776.44
2022-08-30T02:17:29.716Z,98776.22
2022-08-30T02:18:35.330Z,98766.59
2022-08-30T02:19:37.121Z,98777.22
2022-08-30T02:20:40.087Z,98784.72
2022-08-30T02:21:41.802Z,98780.91
2022-08-30T02:22:48.151Z,98775.25
2022-08-30T02:23:52.473Z,98779.84
2022-08-30T02:24:54.178Z,98781.44
2022-08-30T02:25:55.939Z,98741.13
2022-08-30T02:26:57.774Z,98781.38
2022-08-30T02:27:59.513Z,98781.88
2022-08-30T02:29:01.329Z,98781.06
2022-08-30T02:30:06.670Z,98775.34
2022-08-30T02:31:08.601Z,98787.16
2022-08-30T02:32:10.341Z,98782.84
2022-08-30T02:33:12.332Z,98772.47
2022-08-30T02:34:14.384Z,98789.56
2022-08-30T02:35:16.306Z,98788.16
2022-08-30T02:36:19.243Z,98785.97
2022-08-30T02:37:21.998Z,98771.75
2022-08-30T02:38:26.055Z,98789.94
2022-08-30T02:39:27.870Z,98789.16
2022-08-30T02:40:29.690Z,98785.34
2022-08-30T02:41:31.419Z,98782.34
2022-08-30T02:42:34.296Z,98790.16
2022-08-30T02:43:36.060Z,98790.94
2022-08-30T02:44:37.803Z,98785.84
2022-08-30T02:45:39.661Z,98789.34
2022-08-30T02:46:41.493Z,98791.25
2022-08-30T02:47:46.826Z,98776.56
2022-08-30T02:48:48.903Z,98800.06
2022-08-30T02:49:50.608Z,98787.56
2022-08-30T02:50:52.653Z,98788.75
2022-08-30T02:51:54.367Z,98794.16
2022-08-30T02:52:56.078Z,98797.16
2022-08-30T02:53:57.826Z,98798.75
2022-08-30T02:54:59.916Z,98795.75
2022-08-30T02:56:01.875Z,98791.75
2022-08-30T02:57:05.217Z,98796.56
2022-08-30T02:58:07.110Z,98797.06
2022-08-30T02:59:08.814Z,98801.38
2022-08-30T03:00:14.029Z,98798.66
2022-08-30T03:01:16.546Z,98802.47
2022-08-30T03:02:18.370Z,98769.28
2022-08-30T03:03:20.214Z,98788.84
2022-08-30T03:04:26.702Z,98798.16
2022-08-30T03:05:28.827Z,98796.56
2022-08-30T03:06:31.231Z,98794.38
2022-08-30T03:07:32.942Z,98794.94
2022-08-30T03:08:34.683Z,98793.25
2022-08-30T03:09:36.989Z,98804.75
2022-08-30T03:10:38.734Z,98803.13
2022-08-30T03:11:40.964Z,98803.34
2022-08-30T03:12:43.230Z,98790.56
2022-08-30T03:13:45.015Z,98807.13
2022-08-30T03:14:46.826Z,98772.13
2022-08-30T03:15:50.536Z,98808.22
2022-08-30T03:16:52.363Z,98787.34
2022-08-30T03:17:55.657Z,98801.84
2022-08-30T03:18:57.450Z,98802.94
2022-08-30T03:20:01.018Z,98796.53
2022-08-30T03:21:02.788Z,98798.66
2022-08-30T03:22:06.088Z,98803.53
2022-08-30T03:23:07.931Z,98790.22
2022-08-30T03:24:09.632Z,98801.44
2022-08-30T03:25:11.441Z,98799.00
2022-08-30T03:26:15.033Z,98797.81
2022-08-30T03:27:16.814Z,98794.50
2022-08-30T03:28:18.639Z,98801.00
2022-08-30T03:29:20.326Z,98800.50
2022-08-30T03:30:22.062Z,98795.69
2022-08-30T03:31:24.005Z,98804.97
2022-08-30T03:32:26.198Z,98796.69
2022-08-30T03:33:28.025Z,98810.75
2022-08-30T03:34:29.846Z,98803.13
2022-08-30T03:35:33.246Z,98794.63
2022-08-30T03:36:35.018Z,98791.22
2022-08-30T03:37:37.799Z,98807.44
2022-08-30T03:38:39.696Z,98810.31
2022-08-30T03:39:41.590Z,98800.19
2022-08-30T03:40:43.813Z,98807.38
2022-08-30T03:41:46.028Z,98785.38
2022-08-30T03:42:49.025Z,98808.88
2022-08-30T03:43:50.878Z,98815.34
2022-08-30T03:44:52.632Z,98808.72
2022-08-30T03:45:54.432Z,98815.53
2022-08-30T03:46:56.729Z,98815.31
2022-08-30T03:47:59.302Z,98818.59
2022-08-30T03:49:01.775Z,98811.06
2022-08-30T03:50:05.218Z,98802.53
2022-08-30T03:51:06.943Z,98809.22
2022-08-30T03:52:08.982Z,98803.25
2022-08-30T03:53:10.749Z,98805.47
2022-08-30T03:54:12.539Z,98796.50
2022-08-30T03:55:14.926Z,98805.66
2022-08-30T03:56:17.523Z,98813.56
2022-08-30T03:57:19.898Z,98817.56
2022-08-30T03:58:25.985Z,98812.47
2022-08-30T03:59:27.728Z,98806.09
2022-08-30T04:00:29.637Z,98814.34
2022-08-30T04:01:31.522Z,98819.63
2022-08-30T04:02:33.338Z,98814.16
2022-08-30T04:03:35.562Z,98813.03
2022-08-30T04:04:37.405Z,98820.22
2022-08-30T04:05:39.214Z,98820.44
2022-08-30T04:06:41.010Z,98814.34
2022-08-30T04:07:42.714Z,98816.16
2022-08-30T04:08:46.133Z,98827.38
2022-08-30T04:09:47.885Z,98821.09
2022-08-30T04:10:49.882Z,98829.41
2022-08-30T04:11:51.637Z,98821.63
2022-08-30T04:12:54.009Z,98807.72
2022-08-30T04:13:56.952Z,98815.41
2022-08-30T04:14:58.796Z,98826.34
2022-08-30T04:16:00.595Z,98810.25
2022-08-30T04:17:02.360Z,98823.88
2022-08-30T04:18:04.092Z,98832.81
2022-08-30T04:19:05.931Z,98826.41
2022-08-30T04:20:08.374Z,98833.25
2022-08-30T04:21:13.937Z,98831.88
2022-08-30T04:22:16.382Z,98831.31
2022-08-30T04:23:18.339Z,98822.47
2022-08-30T04:24:20.129Z,98831.06
2022-08-30T04:25:21.858Z,98834.94
2022-08-30T04:26:23.628Z,98834.06
2022-08-30T04:27:31.084Z,98840.97
2022-08-30T04:28:34.136Z,98816.28
2022-08-30T04:29:35.952Z,98840.34
2022-08-30T04:30:43.482Z,98840.59
2022-08-30T04:31:46.383Z,98832.13
2022-08-30T04:32:48.240Z,98840.53
2022-08-30T04:33:50.008Z,98834.00
2022-08-30T04:34:57.006Z,98843.59
2022-08-30T04:36:05.083Z,98838.31
2022-08-30T04:37:07.265Z,98844.44
2022-08-30T04:38:13.741Z,98833.63
2022-08-30T04:39:17.238Z,98834.03
2022-08-30T04:40:19.582Z,98836.06
2022-08-30T04:41:24.572Z,98835.03
2022-08-30T04:42:31.442Z,98841.72
2022-08-30T04:43:33.271Z,98851.44
2022-08-30T04:44:35.652Z,98836.53
2022-08-30T04:45:40.133Z,98851.53
2022-08-30T04:46:44.743Z,98859.16
2022-08-30T04:47:46.802Z,98848.97
2022-08-30T04:48:49.563Z,98854.63
2022-08-30T04:49:52.935Z,98852.38
2022-08-30T04:50:54.669Z,98834.47
2022-08-30T04:51:56.472Z,98855.63
2022-08-30T04:52:58.187Z,98846.50
2022-08-30T04:53:59.885Z,98859.34
2022-08-30T04:55:01.683Z,98849.88
2022-08-30T04:56:08.851Z,98841.31
2022-08-30T04:57:10.634Z,98855.91
2022-08-30T04:58:12.551Z,98858.06
2022-08-30T04:59:14.318Z,98857.03
2022-08-30T05:00:16.932Z,98856.13
2022-08-30T05:01:23.962Z,98851.38
2022-08-30T05:02:26.837Z,98852.38
2022-08-30T05:03:28.561Z,98858.50
2022-08-30T05:04:30.370Z,98835.41
2022-08-30T05:05:41.024Z,98852.81
2022-08-30T05:06:43.337Z,98852.66
2022-08-30T05:07:45.040Z,98852.03
2022-08-30T05:08:47.171Z,98855.09
2022-08-30T05:09:48.883Z,98843.28
2022-08-30T05:10:52.158Z,98856.03
2022-08-30T05:11:54.013Z,98837.69
2022-08-30T05:12:56.012Z,98846.09
2022-08-30T05:13:57.867Z,98839.72
2022-08-30T05:14:59.547Z,98845.13
2022-08-30T05:16:02.237Z,98842.53
2022-08-30T05:17:04.103Z,98841.69
2022-08-30T05:18:08.822Z,98855.88
2022-08-30T05:19:15.120Z,98836.66
2022-08-30T05:20:17.425Z,98846.81
2022-08-30T05:21:25.817Z,98841.00
2022-08-30T05:22:27.575Z,98852.16
2022-08-30T05:23:29.268Z,98848.59
2022-08-30T05:24:32.209Z,98848.38
2022-08-30T05:25:39.007Z,98845.94
2022-08-30T05:26:40.876Z,98846.34
2022-08-30T05:27:42.669Z,98830.19
2022-08-30T05:28:45.188Z,98828.84
2022-08-30T05:29:47.854Z,98836.03
2022-08-30T05:30:49.598Z,98841.19
2022-08-30T05:31:51.481Z,98841.44
2022-08-30T05:32:54.310Z,98834.03
2022-08-30T05:33:56.622Z,98834.72
2022-08-30T05:34:58.332Z,98842.41
2022-08-30T05:36:00.070Z,98852.28
2022-08-30T05:37:02.948Z,98853.31
2022-08-30T05:38:04.715Z,98851.63
2022-08-30T05:39:10.229Z,98855.03
2022-08-30T05:40:14.027Z,98847.22
2022-08-30T05:41:19.528Z,98842.47
2022-08-30T05:42:21.941Z,98835.47
2022-08-30T05:43:26.933Z,98847.28
2022-08-30T05:44:31.809Z,98832.78
2022-08-30T05:45:33.513Z,98851.38
2022-08-30T05:46:36.512Z,98829.44
2022-08-30T05:47:39.028Z,98843.53
2022-08-30T05:48:41.402Z,98849.63
2022-08-30T05:49:43.125Z,98847.59
2022-08-30T05:50:44.861Z,98847.78
2022-08-30T05:51:47.729Z,98837.31
2022-08-30T05:52:49.458Z,98846.56
2022-08-30T05:53:53.564Z,98842.66
2022-08-30T05:54:59.399Z,98848.06
2022-08-30T05:56:03.540Z,98842.34
2022-08-30T05:57:05.289Z,98849.91
2022-08-30T05:58:06.971Z,98845.56
2022-08-30T05:59:09.368Z,98852.09
2022-08-30T06:00:15.359Z,98843.00
2022-08-30T06:01:27.218Z,98843.19
2022-08-30T06:02:29.082Z,98827.94
2022-08-30T06:03:33.042Z,98839.06
2022-08-30T06:04:36.607Z,98840.03
2022-08-30T06:05:38.359Z,98841.69
2022-08-30T06:06:42.438Z,98830.13
2022-08-30T06:07:44.160Z,98835.16
2022-08-30T06:08:47.503Z,98838.00
2022-08-30T06:09:49.234Z,98838.84
2022-08-30T06:10:50.976Z,98838.72
2022-08-30T06:11:52.767Z,98841.31
2022-08-30T06:12:54.484Z,98841.06
2022-08-30T06:13:56.369Z,98842.66
2022-08-30T06:14:58.188Z,98833.72
2022-08-30T06:15:59.974Z,98835.03
2022-08-30T06:17:01.947Z,98845.41
2022-08-30T06:18:04.200Z,98839.19
2022-08-30T06:19:08.662Z,98841.06
2022-08-30T06:20:11.106Z,98835.88
2022-08-30T06:21:31.991Z,98840.84
2022-08-30T06:22:33.705Z,98845.50
2022-08-30T06:23:35.498Z,98834.97
2022-08-30T06:24:56.442Z,98848.84
2022-08-30T06:26:07.201Z,98830.38
2022-08-30T06:27:11.246Z,98833.47
2022-08-30T06:28:13.667Z,98839.41
2022-08-30T06:29:19.661Z,98842.78
2022-08-30T06:30:21.517Z,98850.69
2022-08-30T06:31:25.188Z,98851.72
2022-08-30T06:32:27.072Z,98851.91
2022-08-30T06:33:28.799Z,98853.34
2022-08-30T06:34:30.740Z,98852.41
2022-08-30T06:35:37.982Z,98858.91
2022-08-30T06:36:44.003Z,98857.25
2022-08-30T06:37:45.804Z,98857.09
2022-08-30T06:38:50.575Z,98849.16
2022-08-30T06:39:52.323Z,98858.56
2022-08-30T06:40:54.170Z,98859.22
2022-08-30T06:41:55.914Z,98861.03
2022-08-30T06:42:57.746Z,98859.44
2022-08-30T06:44:01.932Z,98854.75
2022-08-30T06:45:10.859Z,98832.09
2022-08-30T06:46:20.412Z,98850.91
2022-08-30T06:47:22.138Z,98854.28
2022-08-30T06:48:23.829Z,98848.38
2022-08-30T06:49:25.597Z,98853.84
2022-08-30T06:50:27.751Z,98849.34
2022-08-30T06:51:36.672Z,98842.81
2022-08-30T06:52:39.402Z,98850.59
2022-08-30T06:53:42.426Z,98848.53
2022-08-30T06:54:44.151Z,98854.66
2022-08-30T06:55:45.880Z,98850.59
2022-08-30T06:57:02.928Z,98848.53
2022-08-30T06:58:05.160Z,98849.78
2022-08-30T06:59:06.975Z,98851.63
2022-08-30T07:00:11.871Z,98846.94
2022-08-30T07:01:26.306Z,98849.84
2022-08-30T07:02:28.359Z,98841.50
2022-08-30T07:03:30.179Z,98841.63
2022-08-30T07:04:32.250Z,98848.22
2022-08-30T07:05:34.002Z,98847.25
2022-08-30T07:06:35.956Z,98838.88
2022-08-30T07:07:38.969Z,98833.63
2022-08-30T07:08:41.138Z,98845.56
2022-08-30T07:09:43.758Z,98833.88
2022-08-30T07:10:45.844Z,98834.75
2022-08-30T07:11:47.654Z,98844.00
2022-08-30T07:12:49.695Z,98842.22
2022-08-30T07:13:51.536Z,98834.91
2022-08-30T07:14:53.245Z,98840.34
2022-08-30T07:15:55.080Z,98841.66
2022-08-30T07:16:56.819Z,98832.25
2022-08-30T07:18:21.672Z,98842.31
2022-08-30T07:19:23.418Z,98848.41
2022-08-30T07:20:25.183Z,98849.63
2022-08-30T07:21:39.439Z,98844.47
2022-08-30T07:22:41.184Z,98846.53
2022-08-30T07:23:44.130Z,98837.44
2022-08-30T07:24:45.967Z,98842.28
2022-08-30T07:25:48.445Z,98852.28
2022-08-30T07:26:52.224Z,98829.34
2022-08-30T07:27:54.302Z,98851.41
2022-08-30T07:28:56.493Z,98849.88
2022-08-30T07:29:59.334Z,98848.03
2022-08-30T07:31:01.167Z,98850.09
2022-08-30T07:32:03.513Z,98848.28
2022-08-30T07:33:05.570Z,98846.38
2022-08-30T07:34:08.658Z,98855.44
2022-08-30T07:35:10.879Z,98849.94
2022-08-30T07:36:13.866Z,98841.97
2022-08-30T07:37:18.273Z,98855.84
2022-08-30T07:38:20.370Z,98857.06
2022-08-30T07:39:22.113Z,98857.44
2022-08-30T07:40:23.993Z,98854.66
2022-08-30T07:41:29.378Z,98848.31
2022-08-30T07:42:31.095Z,98868.47
2022-08-30T07:43:34.279Z,98852.72
2022-08-30T07:44:36.006Z,98865.78
2022-08-30T07:45:39.149Z,98848.50
2022-08-30T07:46:42.208Z,98848.50
2022-08-30T07:47:45.431Z,98863.53
2022-08-30T07:48:47.199Z,98861.22
2022-08-30T07:49:48.936Z,98856.50
2022-08-30T07:50:54.817Z,98864.75
2022-08-30T07:51:58.932Z,98865.91
2022-08-30T07:53:00.661Z,98858.84
2022-08-30T07:54:02.780Z,98856.41
2022-08-30T07:55:06.180Z,98852.50
2022-08-30T07:56:08.542Z,98861.16
2022-08-30T07:57:10.331Z,98867.50
2022-08-30T07:58:12.032Z,98860.41
2022-08-30T07:59:13.717Z,98859.63
2022-08-30T08:00:16.107Z,98868.31
2022-08-30T08:01:19.215Z,98858.44
2022-08-30T08:02:21.034Z,98842.31
2022-08-30T08:03:22.846Z,98859.66
2022-08-30T08:04:24.655Z,98858.47
2022-08-30T08:05:26.392Z,98856.50
2022-08-30T08:06:28.894Z,98853.75
2022-08-30T08:07:37.225Z,98867.56
2022-08-30T08:08:40.028Z,98864.78
2022-08-30T08:09:41.820Z,98860.06
2022-08-30T08:10:43.599Z,98852.16
2022-08-30T08:11:45.351Z,98854.91
2022-08-30T08:12:47.515Z,98869.06
2022-08-30T08:13:53.906Z,98861.13
2022-08-30T08:14:56.169Z,98838.66
2022-08-30T08:15:58.043Z,98857.56
2022-08-30T08:17:00.709Z,98854.41
2022-08-30T08:18:08.156Z,98846.94
2022-08-30T08:19:09.882Z,98861.84
2022-08-30T08:20:11.654Z,98850.75
2022-08-30T08:21:13.376Z,98862.91
2022-08-30T08:22:22.170Z,98855.75
2022-08-30T08:23:23.964Z,98841.88
2022-08-30T08:24:29.635Z,98848.50
2022-08-30T08:25:31.724Z,98859.09
2022-08-30T08:26:36.940Z,98853.09
2022-08-30T08:27:39.776Z,98856.97
2022-08-30T08:28:42.281Z,98855.75
2022-08-30T08:29:44.135Z,98854.66
2022-08-30T08:30:48.423Z,98861.81
2022-08-30T08:31:50.687Z,98848.78
2022-08-30T08:32:52.950Z,98847.25
2022-08-30T08:33:56.400Z,98854.38
2022-08-30T08:34:58.202Z,98848.78
2022-08-30T08:35:59.965Z,98846.66
2022-08-30T08:37:01.711Z,98852.44
2022-08-30T08:38:03.484Z,98844.84
2022-08-30T08:39:07.374Z,98855.03
2022-08-30T08:40:13.496Z,98847.50
2022-08-30T08:41:15.788Z,98853.78
2022-08-30T08:42:32.933Z,98851.41
2022-08-30T08:43:37.416Z,98852.19
2022-08-30T08:44:45.202Z,98846.94
2022-08-30T08:46:24.270Z,98849.69
2022-08-30T08:47:37.586Z,98848.44
2022-08-30T08:48:59.651Z,98848.31
2022-08-30T08:50:05.959Z,98848.91
2022-08-30T08:51:32.457Z,98849.84
2022-08-30T08:53:06.626Z,98848.13
2022-08-30T08:54:28.975Z,98840.75
2022-08-30T08:55:30.781Z,98843.88
2022-08-30T08:56:32.916Z,98840.28
2022-08-30T08:57:36.666Z,98852.78
2022-08-30T08:58:58.105Z,98850.69
2022-08-30T08:59:59.848Z,98844.28
2022-08-30T09:01:01.733Z,98847.75
2022-08-30T09:02:24.707Z,98833.88
2022-08-30T09:03:28.565Z,98835.31
2022-08-30T09:04:38.398Z,98842.50
2022-08-30T09:05:41.691Z,98845.44
2022-08-30T09:06:49.420Z,98845.34
2022-08-30T09:07:59.211Z,98849.31
2022-08-30T09:09:00.906Z,98847.41
2022-08-30T09:10:03.798Z,98834.34
2022-08-30T09:11:11.290Z,98847.13
2022-08-30T09:12:13.457Z,98840.22
2022-08-30T09:13:15.280Z,98838.59
2022-08-30T09:14:25.209Z,98837.03
2022-08-30T09:15:34.783Z,98826.69
2022-08-30T09:16:58.125Z,98835.59
2022-08-30T09:18:12.936Z,98843.06
2022-08-30T09:19:34.441Z,98841.88
2022-08-30T09:20:38.088Z,98837.41
2022-08-30T09:21:39.824Z,98839.47
2022-08-30T09:22:46.682Z,98829.50
2022-08-30T09:23:56.794Z,98844.06
2022-08-30T09:25:11.071Z,98841.59
2022-08-30T09:26:13.891Z,98829.09
2022-08-30T09:27:23.909Z,98833.81
2022-08-30T09:28:28.875Z,98836.03
2022-08-30T09:29:31.423Z,98817.81
2022-08-30T09:30:33.847Z,98844.47
2022-08-30T09:32:10.056Z,98837.88
2022-08-30T09:33:20.489Z,98842.28
2022-08-30T09:34:24.055Z,98829.47
2022-08-30T09:35:36.186Z,98825.25
2022-08-30T09:36:44.669Z,98831.84
2022-08-30T09:37:54.445Z,98832.16
2022-08-30T09:39:05.519Z,98834.75
2022-08-30T09:40:14.793Z,98819.78
2022-08-30T09:41:38.623Z,98819.59
2022-08-30T09:42:40.899Z,98825.66
2022-08-30T09:43:42.596Z,98818.22
2022-08-30T09:44:44.312Z,98818.41
2022-08-30T09:46:09.005Z,98827.63
2022-08-30T09:47:26.064Z,98821.75
2022-08-30T09:48:33.098Z,98823.44
2022-08-30T09:49:44.832Z,98818.75
2022-08-30T09:50:51.201Z,98815.59
2022-08-30T09:52:09.682Z,98813.81
2022-08-30T09:53:23.719Z,98816.97
2022-08-30T09:54:33.926Z,98815.03
2022-08-30T09:56:02.203Z,98815.28
2022-08-30T09:57:34.059Z,98812.59
2022-08-30T09:58:36.030Z,98808.59
2022-08-30T09:59:43.911Z,98800.78
2022-08-30T10:01:02.946Z,98800.69
2022-08-30T10:02:19.962Z,98806.09
2022-08-30T10:03:40.164Z,98799.59
2022-08-30T10:05:01.951Z,98797.44
2022-08-30T10:06:12.883Z,98803.59
2022-08-30T10:07:23.428Z,98803.91
2022-08-30T10:08:49.773Z,98803.13
2022-08-30T10:10:10.887Z,98793.84
2022-08-30T10:11:37.382Z,98797.19
2022-08-30T10:13:06.394Z,98796.59
2022-08-30T10:14:27.427Z,98797.66
2022-08-30T10:15:37.887Z,98787.03
2022-08-30T10:17:00.043Z,98778.53
2022-08-30T10:18:28.245Z,98787.16
2022-08-30T10:20:05.383Z,98787.03
2022-08-30T10:21:28.834Z,98789.03
2022-08-30T10:22:50.711Z,98787.69
2022-08-30T10:24:02.931Z,98791.72
2022-08-30T10:25:16.528Z,98790.59
2022-08-30T10:26:33.424Z,98786.25
2022-08-30T10:28:07.205Z,98778.56
2022-08-30T10:29:19.225Z,98777.53
2022-08-30T10:30:21.189Z,98783.16
2022-08-30T10:31:49.389Z,98784.06
2022-08-30T10:33:16.177Z,98785.81
2022-08-30T10:34:35.233Z,98769.19
2022-08-30T10:35:42.658Z,98763.03
2022-08-30T10:36:56.535Z,98768.09
2022-08-30T10:38:14.129Z,98774.25
2022-08-30T10:39:25.734Z,98773.38
2022-08-30T10:40:51.119Z,98768.91
2022-08-30T10:42:01.889Z,98769.47
2022-08-30T10:43:11.826Z,98770.16
2022-08-30T10:44:18.666Z,98759.13
2022-08-30T10:45:22.253Z,98766.31
2022-08-30T10:46:45.020Z,98762.69
2022-08-30T10:48:23.641Z,98772.78
2022-08-30T10:49:28.811Z,98766.13
2022-08-30T10:50:41.272Z,98770.09
2022-08-30T10:52:21.080Z,98766.00
2022-08-30T10:53:31.284Z,98763.63
2022-08-30T10:54:47.140Z,98760.34
2022-08-30T10:55:58.626Z,98762.53
2022-08-30T10:57:00.617Z,98765.41
2022-08-30T10:58:04.898Z,98749.84
2022-08-30T10:59:06.939Z,98760.84
2022-08-30T11:00:22.935Z,98752.69
2022-08-30T11:01:49.828Z,98753.28
2022-08-30T11:03:08.623Z,98761.19
2022-08-30T11:04:32.104Z,98743.78
2022-08-30T11:05:55.295Z,98754.09
2022-08-30T11:07:17.874Z,98761.91
2022-08-30T11:08:35.059Z,98751.84
2022-08-30T11:09:42.738Z,98753.81
2022-08-30T11:10:57.036Z,98740.81
2022-08-30T11:12:35.899Z,98751.69
2022-08-30T11:13:40.206Z,98741.13
2022-08-30T11:14:45.505Z,98745.22
2022-08-30T11:16:10.913Z,98738.44
2022-08-30T11:17:23.699Z,98746.91
2022-08-30T11:18:29.388Z,98736.22
2022-08-30T11:19:40.945Z,98743.59
2022-08-30T11:20:46.023Z,98734.47
2022-08-30T11:21:48.843Z,98736.03
2022-08-30T11:23:36.496Z,98740.88
2022-08-30T11:25:01.477Z,98738.84
2022-08-30T11:26:08.773Z,98738.16
2022-08-30T11:27:51.958Z,98740.88
2022-08-30T11:29:02.525Z,98733.31
2022-08-30T11:30:31.925Z,98731.47
2022-08-30T11:31:40.850Z,98744.44
2022-08-30T11:33:07.928Z,98736.28
2022-08-30T11:34:11.633Z,98722.75
2022-08-30T11:35:39.554Z,98729.44
2022-08-30T11:37:01.967Z,98731.78
2022-08-30T11:38:18.809Z,98717.31
2022-08-30T11:39:49.173Z,98728.09
2022-08-30T11:40:55.539Z,98723.91
2022-08-30T11:42:14.104Z,98731.22
2022-08-30T11:43:42.454Z,98716.88
2022-08-30T11:44:44.163Z,98721.97
2022-08-30T11:45:52.436Z,98728.13
2022-08-30T11:46:58.683Z,98719.31
2022-08-30T11:48:10.061Z,98727.47
2022-08-30T11:49:15.598Z,98725.22
2022-08-30T11:50:35.571Z,98718.22
2022-08-30T11:52:26.379Z,98719.53
2022-08-30T11:53:36.668Z,98710.16
2022-08-30T11:55:15.782Z,98706.44
2022-08-30T11:56:32.029Z,98714.97
2022-08-30T11:57:50.912Z,98705.44
2022-08-30T11:59:10.314Z,98710.31
2022-08-30T12:00:38.714Z,98709.34
2022-08-30T12:01:50.574Z,98708.09
2022-08-30T12:03:02.329Z,98703.22
2022-08-30T12:04:16.656Z,98700.09
2022-08-30T12:05:46.086Z,98700.94
2022-08-30T12:07:04.440Z,98695.53
2022-08-30T12:08:08.079Z,98697.03
2022-08-30T12:09:30.887Z,98700.56
2022-08-30T12:10:43.577Z,98694.94
2022-08-30T12:12:00.634Z,98691.31
2022-08-30T12:13:02.550Z,98687.31
2022-08-30T12:14:09.467Z,98692.50
2022-08-30T12:15:28.524Z,98681.78
2022-08-30T12:17:01.459Z,98693.41
2022-08-30T12:18:23.596Z,98691.84
2022-08-30T12:19:27.035Z,98698.47
2022-08-30T12:20:49.667Z,98688.91
2022-08-30T12:21:57.316Z,98688.53
2022-08-30T12:23:21.475Z,98680.81
2022-08-30T12:24:41.248Z,98684.69
2022-08-30T12:25:43.428Z,98682.03
2022-08-30T12:26:48.605Z,98687.19
2022-08-30T12:27:51.776Z,98679.47
2022-08-30T12:29:07.238Z,98686.22
2022-08-30T12:30:10.225Z,98685.50
2022-08-30T12:31:23.734Z,98688.28
2022-08-30T12:32:25.900Z,98688.75
2022-08-30T12:33:36.639Z,98694.25
2022-08-30T12:34:42.447Z,98688.38
2022-08-30T12:35:44.700Z,98686.41
2022-08-30T12:36:55.477Z,98690.25
2022-08-30T12:38:06.863Z,98692.41
2022-08-30T12:39:10.383Z,98688.88
2022-08-30T12:40:18.306Z,98685.47
2022-08-30T12:41:22.743Z,98689.03
2022-08-30T12:42:28.144Z,98683.56
2022-08-30T12:43:40.503Z,98689.84
2022-08-30T12:44:43.725Z,98678.81
2022-08-30T12:45:50.882Z,98689.84
2022-08-30T12:46:59.714Z,98677.72
2022-08-30T12:48:11.693Z,98684.81
2022-08-30T12:49:16.839Z,98680.13
2022-08-30T12:50:29.428Z,98665.56
2022-08-30T12:51:38.341Z,98678.56
2022-08-30T12:52:45.781Z,98681.34
2022-08-30T12:53:51.324Z,98675.50
2022-08-30T12:54:56.154Z,98686.09
2022-08-30T12:56:05.690Z,98671.16
2022-08-30T12:57:25.467Z,98695.63
2022-08-30T12:58:48.163Z,98699.59
2022-08-30T12:59:59.738Z,98710.31
2022-08-30T13:01:27.554Z,98698.81